x

Neah Bay, - 6nm North Of Cape Flattery, Wa (traffic Separation Lighted Buoy) (46087) Wave Buoy

1:50 - Fri 27th Feb 2015 All times are PST. -8 hours from GMT.

  • Sig Wave height 6.6ft
  • Swell Direction
  • Peak Period 8s
  • Average Period 8s
  • Wind
    11mph, 20mph gusts
  • Sea Temp 49°f
  • Ar Temp 48°f
  • Sea Pressure 1009.3mb
  • Neah Bay, - 6nm North Of Cape Flattery, Wa     (traffic Separation Lighted Buoy)
  • Neah Bay, - 6nm North Of Cape Flattery, Wa     (traffic Separation Lighted Buoy)

More Historic Weather Station data

Upgrade to MSW Pro to gain access to the past 30 days of data for over 8000 Wavebouys and Weather Stations around the globe.

Join Pro

Comparision Forecast

View Surf forecast
   
Sex 02/27 1:50 6.5ft 8s 8s 11 20 mph 1009.3mb 49f 48f
1:20  -   -   -  7
mph
1009.3mb 49f 48f
12:50 6.5ft 8s 8s 7 9 mph 1009.4mb 49f 48f
12:20  -   -   -  4 7 mph 1009.4mb 49f 47f
11:50 6ft 8s 8s 4 7 mph 1009.5mb 49f 47f
11:20  -   -   -  4 7 mph 1009.1mb 49f 47f
10:50 5ft 11s 8s 7 9 mph 1008.9mb 49f 47f
10:20  -   -   -  7
mph
1008.8mb 49f 47f
9:50 5ft 8s 7s 4 7 mph 1008.8mb 49f 47f
9:20  -   -   -  2 4 mph 1008.5mb 49f 47f
8:50 4.5ft 11s 7s 7 9 mph 1008.1mb 49f 47f
8:20  -   -   -  11 13 mph 1007.8mb 49f 47f
7:50 4.5ft 11s 7s 13 16 mph 1007.6mb 49f 48f
7:20  -   -   -  13 18 mph 1007.3mb 49f 48f
6:50 4.5ft 11s 7s 13 18 mph 1007.1mb 49f 47f
6:20  -   -   -  13 18 mph 1007.1mb 49f 47f
5:50 4.5ft 11s 8s 11 13 mph 1007.3mb 49f 47f
5:20  -   -   -  11 13 mph 1007.2mb 49f 48f
4:50 4.5ft 11s 8s 11 13 mph 1007.5mb 49f 48f
4:20  -   -   -  11 13 mph 1007.2mb 49f 48f
3:50 4.5ft 11s 7s 9 11 mph 1007.3mb 49f 47f
3:20  -   -   -  7 11 mph 1007.5mb 49f 47f
2:50 4.5ft 11s 7s 11 13 mph 1007.4mb 49f 47f
2:20  -   -   -  16 18 mph 1007.6mb 49f 47f
1:50 4.5ft 11s 6s 16 20 mph 1007.7mb 49f 47f
1:20  -   -   -  16 20 mph 1007.9mb 49f 47f
12:50 5ft 11s 7s 18 20 mph 1008mb 49f 46f
12:20  -   -   -  18 22 mph 1008.2mb 49f 47f
Qui 02/26 11:50 5ft 11s 6s 20 22 mph 1008.3mb 48f 47f
11:20  -   -   -  18 22 mph 1008.7mb 48f 47f
10:50 5ft 11s 6s 20 25 mph 1008.7mb 48f 47f
10:20  -   -   -  20 25 mph 1009.2mb 48f 47f
9:50 5ft 11s 6s 20 25 mph 1009.5mb 48f 47f
9:20  -   -   -  20 25 mph 1009.8mb 48f 47f
8:50 5ft 11s 6s 20 27 mph 1010mb 48f 47f
8:20  -   -   -  22 27 mph 1010.5mb 48f 47f
7:50 5ft 11s 6s 20 25 mph 1011mb 48f 47f
7:20  -   -   -  20 27 mph 1011.4mb 48f 47f
6:50 5ft 12s 6s 20 25 mph 1012.1mb 48f 47f
6:20  -   -   -  20 25 mph 1012.7mb 48f 47f
5:50 5ft 11s 6s 18 22 mph 1013.2mb 48f 47f
5:20  -   -   -  18 22 mph 1013.7mb 48f 47f
4:50 5ft 10s 7s 20 25 mph 1014.1mb 48f 47f
4:20  -   -   -  20 22 mph 1014.8mb 48f 47f
3:50 4.5ft 11s 7s 18 20 mph 1015.3mb 48f 47f
3:20  -   -   -  16 20 mph 1015.7mb 48f 47f
2:50 4.5ft 11s 7s 16 18 mph 1016.3mb 48f 47f
2:20  -   -   -  16 18 mph 1016.8mb 48f 47f
1:50 4.5ft 10s 7s 16
mph
1017.4mb 48f 47f
1:20  -   -   -  13 16 mph 1017.9mb 48f 47f
12:50 4ft 11s 7s 16 18 mph 1018.4mb 48f 47f
12:20  -   -   -  16 18 mph 1018.9mb 48f 47f
11:50 3.5ft 11s 6s 16 18 mph 1019.4mb 48f 47f
11:20  -   -   -  16 18 mph 1019.7mb 48f 47f
10:50 4.5ft 11s 7s 13 16 mph 1020.2mb 48f 47f
10:20  -   -   -  16 18 mph 1020.5mb 48f 47f
9:50 4ft 11s 8s 13 16 mph 1020.7mb 48f 47f
9:20  -   -   -  13 16 mph 1020.8mb 48f 47f
8:50 4ft 11s 7s 9 11 mph 1021.1mb 48f 47f
8:20  -   -   -  9 11 mph 1021mb 48f 47f
7:50 3.5ft 11s 7s 7 9 mph 1021.3mb 48f 47f
7:20  -   -   -  7 9 mph 1021.6mb 48f 47f
6:50 3.5ft 12s 7s 7 9 mph 1021.7mb 48f 47f
6:20  -   -   -  9 11 mph 1021.4mb 48f 46f
5:50 3.5ft 11s 7s 9 11 mph 1021.5mb 48f 47f
5:20  -   -   -  9 11 mph 1022mb 48f 46f
4:50 3.5ft 11s 7s 9
mph
1022.5mb 48f 46f
4:20  -   -   -  9 11 mph 1022.5mb 48f 46f
3:50 4ft 11s 8s 9 11 mph 1022.8mb 48f 46f
3:20  -   -   -  9 11 mph 1023mb 48f 47f
2:50 4ft 11s 7s 4 7 mph 1023.6mb 48f 46f
2:20  -   -   -  4
mph
1023.9mb 48f 47f
1:50 3.5ft 11s 7s 4 7 mph 1023.8mb 48f 46f
1:20  -   -   -  4 7 mph 1024mb 48f 46f
12:50 4ft 9s 7s 4 7 mph 1024.2mb 48f 46f
12:20  -   -   -  4 7 mph 1024.3mb 48f 46f
Qua 02/25 11:50 4ft 10s 7s 2 4 mph 1024.6mb 48f 47f
11:20  -   -   -   -  2 mph 1025mb 48f 47f
10:50 4ft 9s 7s  -  2 mph 1025mb 48f 47f
10:20  -   -   -  2
mph
1025.1mb 48f 47f
9:50 4ft 11s 7s 2 4 mph 1025.2mb 48f 47f
9:20  -   -   -  4 7 mph 1025.6mb 48f 47f
8:50 4.5ft 11s 7s 2 4 mph 1025.6mb 48f 47f
8:20  -   -   -  2 4 mph 1025.5mb 48f 46f
7:50 4.5ft 11s 6s 7 9 mph 1025.6mb 48f 46f
7:20  -   -   -  4 7 mph 1026mb 48f 47f
6:50 5ft 8s 6s 4
mph
1026mb 48f 47f
6:20  -   -   -  4 7 mph 1026.1mb 48f 47f
5:50 5.5ft 10s 7s 4
mph
1026.3mb 48f 47f
5:20  -   -   -  4 7 mph 1026.7mb 48f 47f
4:50 5ft 11s 6s 4 7 mph 1027mb 48f 47f
4:20  -   -   -  7 9 mph 1027.3mb 49f 47f
3:50 5ft 10s 7s 7 9 mph 1027.4mb 49f 47f
3:20  -   -   -  4
mph
1027.6mb 49f 47f
2:50 5ft 11s 7s 4
mph
1027.9mb 49f 46f
2:20  -   -   -  4
mph
1028.3mb 48f 46f
1:50 5ft 11s 8s 2
mph
1028.6mb 48f 46f
1:20  -   -   -  2 4 mph 1028.8mb 48f 46f
12:50 5ft 11s 8s  -  2 mph 1029.3mb 48f 46f
12:20  -   -   -  4
mph
1029.3mb 48f 46f
11:50 5ft 10s 8s 4 7 mph 1029.4mb 48f 46f
11:20  -   -   -  7
mph
1029.4mb 48f 46f
10:50 5ft 11s 8s 7 9 mph 1029.9mb 48f 46f
10:20  -   -   -  7 9 mph 1029.8mb 48f 46f
9:50 5ft 11s 8s 9 11 mph 1029.7mb 48f 46f
9:20  -   -   -  9 11 mph 1029.5mb 48f 45f
8:50 5ft 11s 7s 9 11 mph 1029.5mb 48f 45f
8:20  -   -   -  9 11 mph 1029.6mb 48f 46f
7:50 5ft 11s 7s 9
mph
1029.7mb 48f 45f
7:20  -   -   -  7 9 mph 1029.8mb 48f 45f
6:50 5.5ft 10s 7s 4 7 mph 1029.6mb 48f 45f
6:20  -   -   -  9
mph
1029.4mb 48f 45f
5:50 5ft 12s 7s 9 11 mph 1029.3mb 48f 46f
5:20  -   -   -  7 9 mph 1029.5mb 48f 46f
4:50 5ft 12s 7s 4 7 mph 1029.8mb 48f 46f
4:20  -   -   -  7
mph
1029.2mb 48f 46f
3:50 5ft 12s 7s 4 7 mph 1029.2mb 48f 46f
3:20  -   -   -  4
mph
1029.3mb 49f 46f
2:50  -   -   -  4 7 mph 1029.6mb 49f 46f
2:20  -   -   -  7
mph
1029.7mb 49f 46f
1:50 5ft 11s 8s 7 9 mph 1029.4mb 49f 46f
1:20  -   -   -  7 9 mph 1029.1mb 49f 47f
12:50 5ft 11s 8s 7
mph
1028.6mb 49f 47f
12:20  -   -   -  4 7 mph 1028.8mb 49f 47f
Ter 02/24 11:50 5ft 11s 8s 4 7 mph 1028.8mb 49f 48f
11:20  -   -   -  4 7 mph 1028.9mb 49f 48f
10:50 5ft 12s 8s 4 7 mph 1028.6mb 49f 48f
10:20  -   -   -  4 7 mph 1028.7mb 49f 48f
9:50 4.5ft 11s 8s 4 7 mph 1028.6mb 49f 48f
9:20  -   -   -  4 7 mph 1028.6mb 49f 48f
8:50 4.5ft 11s 8s 7 9 mph 1028.1mb 49f 48f
8:20  -   -   -  11 13 mph 1028.1mb 49f 48f
7:50 5ft 12s 7s 11 16 mph 1027.9mb 49f 49f
7:20  -   -   -  11 13 mph 1027.9mb 49f 48f
6:50 5ft 11s 8s 9 11 mph 1027.8mb 49f 49f
6:20  -   -   -  7 11 mph 1028.1mb 49f 49f
5:50 5ft 11s 8s 9 11 mph 1028mb 49f 49f
5:20  -   -   -  9 11 mph 1027.4mb 49f 49f
4:50 5ft 12s 8s 4 7 mph 1027.5mb 49f 49f
4:20  -   -   -  4 7 mph 1027.6mb 49f 49f
3:50 5.5ft 11s 9s 7 9 mph 1027.7mb 49f 49f
3:20  -   -   -  7 9 mph 1028mb 49f 48f
2:50 6ft 12s 9s 7 9 mph 1028.1mb 49f 48f
2:20  -   -   -  9 11 mph 1028.3mb 49f 48f
1:50 5ft 12s 9s 9 13 mph 1028.4mb 49f 48f
1:20  -   -   -  4 9 mph 1028.6mb 49f 48f
12:50 5ft 13s 10s 4 7 mph 1028.8mb 49f 48f
12:20  -   -   -  2 4 mph 1029mb 49f 48f
11:50 5ft 13s 10s  -  mph 1029.3mb 49f 49f
11:20  -   -   -  2 4 mph 1029.1mb 49f 47f
10:50 5.5ft 13s 10s 2 4 mph 1029.2mb 49f 47f
10:20  -   -   -   -  2 mph 1028.9mb 49f 49f
9:50 4.5ft 13s 10s 2
mph
1028.8mb 49f 47f
9:20  -   -   -   -  2 mph 1028.9mb 49f 48f
8:50 4.5ft 13s 10s  -  mph 1029.1mb 48f 48f
8:20  -   -   -   -  2 mph 1029.2mb 48f 46f
7:50 5ft 12s 10s  -  2 mph 1028.9mb 48f 46f
7:20  -   -   -   -  2 mph 1028.9mb 48f 45f
6:50 4.5ft 12s 10s 2 4 mph 1028.9mb 48f 45f
6:20  -   -   -  4
mph
1028.8mb 48f 45f
5:50 5ft 12s 10s 4 7 mph 1028.6mb 48f 45f
5:20  -   -   -  4
mph
1028.6mb 48f 45f
4:50 5ft 13s 11s 2 4 mph 1028.7mb 48f 46f
4:20  -   -   -  7 9 mph 1028.7mb 48f 46f
3:50 5ft 13s 10s  -  4 mph 1028.8mb 48f 46f
3:20  -   -   -  2 4 mph 1029mb 48f 45f
2:50 6ft 13s 10s 4 7 mph 1029.3mb 48f 45f
2:20  -   -   -  2 4 mph 1029.2mb 48f 45f
1:50 5ft 14s 10s  -  2 mph 1029.5mb 48f 45f
1:20  -   -   -  2 4 mph 1029.4mb 48f 45f
12:50 5ft 13s 11s 4 7 mph 1029.2mb 48f 46f
12:20  -   -   -  4
mph
1029.6mb 48f 46f
Seg 02/23 11:50 5ft 13s 11s 2 4 mph 1029.7mb 48f 46f
11:20  -   -   -  2 4 mph 1029.9mb 48f 47f